Time;durP1;ratioP1;P1;durP2;ratioP2;P2;SDS_P1;SDS_P2;PMS_P1;PMS_P2;Temp;Humidity;BMP_temperature;BMP_pressure;BME280_temperature;BME280_humidity;BME280_pressure;Samples;Min_cycle;Max_cycle;Signal;HPM_P1;HPM_P2
2022/07/16 00:03:18;;;;;;;4.40;4.00;;;15.70;99.90;;;;;;4995637;28;20183;-93
2022/07/16 00:05:44;;;;;;;5.30;4.67;;;15.70;99.90;;;;;;4979104;28;20191;-92
2022/07/16 00:08:11;;;;;;;6.10;4.10;;;15.70;99.90;;;;;;4999122;28;20187;-93
2022/07/16 00:10:37;;;;;;;4.83;4.23;;;15.70;99.90;;;;;;4999706;28;20183;-93
2022/07/16 00:13:04;;;;;;;4.60;3.83;;;15.70;99.90;;;;;;4999472;28;20258;-93
2022/07/16 00:15:30;;;;;;;5.50;4.27;;;15.70;99.90;;;;;;4999019;28;20322;-93
2022/07/16 00:20:41;;;;;;;5.00;4.03;;;15.70;99.90;;;;;;5015706;28;20183;-93
2022/07/16 00:23:07;;;;;;;5.80;4.53;;;15.80;99.90;;;;;;4999654;28;20184;-93
2022/07/16 00:25:35;;;;;;;5.17;4.60;;;15.70;99.90;;;;;;4999303;28;20226;-93
2022/07/16 00:28:01;;;;;;;6.63;4.90;;;15.70;99.90;;;;;;4999774;28;20240;-93
2022/07/16 00:30:28;;;;;;;4.57;4.13;;;15.60;99.90;;;;;;4999473;28;20624;-93
2022/07/16 00:32:53;;;;;;;6.93;4.50;;;15.60;99.90;;;;;;4999120;28;20183;-93
2022/07/16 00:35:27;;;;;;;6.67;4.70;;;15.60;99.90;;;;;;4982371;28;20217;-93
2022/07/16 00:37:54;;;;;;;7.53;4.80;;;15.50;99.90;;;;;;4983000;28;20195;-93
2022/07/16 00:40:20;;;;;;;6.03;4.40;;;15.40;99.90;;;;;;4998911;28;20176;-93
2022/07/16 00:42:46;;;;;;;6.90;4.53;;;15.40;99.90;;;;;;4999139;28;20219;-93
2022/07/16 00:45:13;;;;;;;6.17;4.97;;;15.40;99.90;;;;;;4998378;28;20210;-93
2022/07/16 00:47:38;;;;;;;5.37;4.50;;;15.40;99.90;;;;;;4998892;28;20194;-93
2022/07/16 00:50:05;;;;;;;6.40;5.00;;;15.30;99.90;;;;;;4998990;28;20636;-93
2022/07/16 00:52:35;;;;;;;6.20;4.93;;;15.30;99.90;;;;;;4998790;28;20200;-93
2022/07/16 00:55:02;;;;;;;5.10;4.40;;;15.30;99.90;;;;;;4998345;28;20199;-93
2022/07/16 00:57:29;;;;;;;6.07;4.40;;;15.30;99.90;;;;;;4998440;28;20210;-93
2022/07/16 00:59:55;;;;;;;6.13;4.93;;;15.20;99.90;;;;;;4998646;28;20210;-93
2022/07/16 01:02:21;;;;;;;6.57;5.07;;;15.20;99.90;;;;;;4998381;28;20218;-93
2022/07/16 01:04:47;;;;;;;6.17;4.80;;;15.10;99.90;;;;;;4998642;28;20183;-93
2022/07/16 01:07:14;;;;;;;5.70;4.57;;;15.20;99.90;;;;;;4998605;28;20214;-92
2022/07/16 01:09:40;;;;;;;7.10;4.93;;;15.20;99.90;;;;;;4982304;28;20183;-93
2022/07/16 01:12:07;;;;;;;9.33;5.20;;;15.10;99.90;;;;;;4982311;28;20210;-93
2022/07/16 01:14:34;;;;;;;5.37;4.57;;;15.00;99.90;;;;;;4981700;28;20239;-93
2022/07/16 01:17:00;;;;;;;5.13;4.57;;;14.90;99.90;;;;;;4981903;28;20183;-93
2022/07/16 01:19:26;;;;;;;5.73;4.40;;;14.90;99.90;;;;;;4997825;28;20661;-93
2022/07/16 01:21:52;;;;;;;6.60;4.77;;;14.90;99.90;;;;;;4981755;28;20195;-92
2022/07/16 01:24:18;;;;;;;4.63;4.10;;;14.70;99.90;;;;;;4997649;28;20176;-92
2022/07/16 01:26:44;;;;;;;5.17;4.47;;;14.60;99.90;;;;;;4981916;28;20243;-92
2022/07/16 01:29:10;;;;;;;4.97;4.43;;;14.60;99.90;;;;;;4996836;28;20207;-92
2022/07/16 01:31:36;;;;;;;5.47;4.50;;;14.50;99.90;;;;;;4997736;28;20207;-92
2022/07/16 01:37:01;;;;;;;8.10;4.93;;;14.50;99.90;;;;;;4997802;28;20250;-92
2022/07/16 01:39:29;;;;;;;5.70;5.03;;;14.40;99.90;;;;;;4997623;28;20175;-92
2022/07/16 01:41:58;;;;;;;5.47;4.73;;;14.40;99.90;;;;;;4997823;28;20199;-93
2022/07/16 01:44:39;;;;;;;8.90;5.10;;;14.30;99.90;;;;;;4997321;28;20179;-93
2022/07/16 01:47:07;;;;;;;6.57;4.93;;;14.30;99.90;;;;;;4997674;28;20274;-92
2022/07/16 01:49:36;;;;;;;7.63;4.93;;;14.20;99.90;;;;;;4980069;28;20191;-93
2022/07/16 01:52:14;;;;;;;5.70;4.10;;;14.20;99.90;;;;;;4981056;28;20565;-92
2022/07/16 01:54:44;;;;;;;6.27;4.97;;;14.20;99.90;;;;;;4981032;28;20205;-92
2022/07/16 01:57:10;;;;;;;7.70;4.90;;;14.20;99.90;;;;;;4997148;28;20278;-92
2022/07/16 01:59:37;;;;;;;6.27;4.80;;;14.10;99.90;;;;;;4997184;28;20176;-92
2022/07/16 02:02:03;;;;;;;6.33;4.80;;;14.10;99.90;;;;;;4997456;28;20231;-93
2022/07/16 02:04:29;;;;;;;6.23;5.00;;;14.20;99.90;;;;;;4997150;28;20180;-92
2022/07/16 02:06:55;;;;;;;5.07;4.60;;;14.10;99.90;;;;;;4996802;28;20193;-92
2022/07/16 02:09:21;;;;;;;5.03;4.47;;;14.10;99.90;;;;;;4997315;28;20225;-93
2022/07/16 02:11:47;;;;;;;5.17;4.67;;;14.00;99.90;;;;;;4996914;28;20208;-92
2022/07/16 02:14:13;;;;;;;5.53;4.70;;;14.10;99.90;;;;;;4996436;28;20269;-92
2022/07/16 02:16:39;;;;;;;6.33;4.50;;;14.10;99.90;;;;;;4997329;28;20187;-92
2022/07/16 02:19:05;;;;;;;5.27;4.60;;;14.10;99.90;;;;;;4996663;28;20190;-92
2022/07/16 02:21:31;;;;;;;5.37;4.53;;;14.00;99.90;;;;;;4996871;28;20205;-92
2022/07/16 02:23:59;;;;;;;5.97;4.87;;;14.00;99.90;;;;;;4996264;28;20182;-92
2022/07/16 02:26:26;;;;;;;6.00;4.73;;;13.90;99.90;;;;;;4997257;28;20179;-92
2022/07/16 02:28:52;;;;;;;5.90;4.53;;;13.90;99.90;;;;;;4996880;28;20317;-92
2022/07/16 02:31:19;;;;;;;5.60;4.90;;;13.80;99.90;;;;;;4989264;28;20282;-93
2022/07/16 02:33:45;;;;;;;6.90;4.63;;;13.80;99.90;;;;;;4979875;28;20190;-93
2022/07/16 02:36:11;;;;;;;5.43;4.37;;;13.70;99.90;;;;;;4980515;28;20233;-92
2022/07/16 02:38:37;;;;;;;6.00;4.43;;;13.70;99.90;;;;;;4980468;28;20189;-92
2022/07/16 02:41:03;;;;;;;7.47;4.57;;;13.60;99.90;;;;;;4980427;28;20201;-92
2022/07/16 02:43:29;;;;;;;5.50;4.20;;;13.60;99.90;;;;;;4980502;28;20181;-92
2022/07/16 02:45:55;;;;;;;5.63;4.20;;;13.50;99.90;;;;;;4980368;28;20188;-92
2022/07/16 02:48:21;;;;;;;5.37;4.47;;;13.50;99.90;;;;;;4980093;28;20178;-92
2022/07/16 02:50:47;;;;;;;6.63;4.90;;;13.40;99.90;;;;;;4980011;28;20198;-92
2022/07/16 02:53:13;;;;;;;6.60;4.90;;;13.40;99.90;;;;;;4980104;28;20188;-92
2022/07/16 02:55:39;;;;;;;5.80;4.50;;;13.40;99.90;;;;;;4985861;28;20220;-92
2022/07/16 02:58:05;;;;;;;7.37;5.10;;;13.50;99.90;;;;;;4993213;28;20204;-92
2022/07/16 03:00:31;;;;;;;5.27;4.77;;;13.50;99.90;;;;;;4993476;28;20183;-92
2022/07/16 03:02:57;;;;;;;5.83;4.70;;;13.50;99.90;;;;;;4993122;28;20185;-93
2022/07/16 03:05:23;;;;;;;6.03;4.73;;;13.50;99.90;;;;;;4992778;28;20214;-92
2022/07/16 03:07:50;;;;;;;6.27;5.00;;;13.50;99.90;;;;;;4993028;28;20278;-92
2022/07/16 03:10:16;;;;;;;8.30;5.10;;;13.50;99.90;;;;;;4993220;28;20186;-92
2022/07/16 03:12:42;;;;;;;6.37;5.13;;;13.40;99.90;;;;;;4993539;28;20302;-92
2022/07/16 03:15:17;;;;;;;6.23;4.90;;;13.40;99.90;;;;;;4992361;28;20218;-92
2022/07/16 03:18:15;;;;;;;4.93;4.47;;;13.30;99.90;;;;;;4992836;28;20171;-92
2022/07/16 03:20:41;;;;;;;6.27;4.93;;;13.20;99.90;;;;;;4992500;28;20174;-92
2022/07/16 03:23:07;;;;;;;6.43;5.03;;;13.20;99.90;;;;;;4990734;28;20232;-92
2022/07/16 03:25:33;;;;;;;5.43;4.93;;;13.10;99.90;;;;;;4995849;28;20646;-92
2022/07/16 03:27:59;;;;;;;6.03;4.60;;;13.10;99.90;;;;;;4995506;28;20187;-92
2022/07/16 03:30:25;;;;;;;4.73;4.23;;;13.10;99.90;;;;;;4979393;28;20189;-92
2022/07/16 03:33:15;;;;;;;5.90;4.73;;;13.00;99.90;;;;;;4979519;28;20179;-92
2022/07/16 03:35:41;;;;;;;6.47;4.80;;;13.00;99.90;;;;;;4979479;28;20200;-92
2022/07/16 03:40:51;;;;;;;7.67;5.00;;;13.00;99.90;;;;;;4996184;28;20230;-93
2022/07/16 03:43:17;;;;;;;6.17;4.70;;;13.00;99.90;;;;;;4999371;28;20185;-92
2022/07/16 03:45:43;;;;;;;6.87;5.20;;;13.00;99.90;;;;;;4998445;28;20223;-92
2022/07/16 03:48:09;;;;;;;5.10;4.60;;;13.10;99.90;;;;;;4982248;28;20181;-92
2022/07/16 03:50:35;;;;;;;4.87;4.37;;;13.20;99.90;;;;;;4999737;28;20181;-92
2022/07/16 03:53:01;;;;;;;5.73;4.50;;;13.20;99.90;;;;;;4983464;28;20255;-92
2022/07/16 03:55:26;;;;;;;6.17;5.10;;;13.20;99.90;;;;;;4983228;28;20204;-92
2022/07/16 03:57:52;;;;;;;6.33;4.83;;;13.20;99.90;;;;;;4983242;28;20185;-92
2022/07/16 04:00:24;;;;;;;6.87;4.93;;;13.20;99.90;;;;;;4983040;28;20200;-91
2022/07/16 04:02:50;;;;;;;6.77;4.57;;;13.10;99.90;;;;;;4983270;28;20242;-92
2022/07/16 04:05:16;;;;;;;5.20;4.70;;;13.20;99.90;;;;;;4983253;28;20273;-92
2022/07/16 04:07:42;;;;;;;6.33;5.57;;;13.30;99.90;;;;;;4983307;28;20196;-92
2022/07/16 04:10:08;;;;;;;5.73;5.13;;;13.30;99.90;;;;;;4999499;28;20205;-92
2022/07/16 04:12:34;;;;;;;7.43;4.97;;;13.30;99.90;;;;;;4999395;28;20226;-92
2022/07/16 04:15:01;;;;;;;6.37;4.70;;;13.30;99.90;;;;;;4995667;28;20283;-92
2022/07/16 04:17:26;;;;;;;5.60;4.90;;;13.40;99.90;;;;;;4995989;28;20277;-92
2022/07/16 04:20:07;;;;;;;5.33;4.83;;;13.40;99.90;;;;;;4995775;28;20262;-93
2022/07/16 04:22:33;;;;;;;6.03;5.20;;;13.40;99.90;;;;;;4980087;28;20205;-92
2022/07/16 04:24:59;;;;;;;5.47;4.97;;;13.40;99.90;;;;;;4963806;28;20182;-91
2022/07/16 04:27:25;;;;;;;8.13;4.90;;;13.50;99.90;;;;;;4965068;28;20193;-92
2022/07/16 04:29:51;;;;;;;6.60;4.40;;;13.50;99.90;;;;;;4979772;28;20212;-92
2022/07/16 04:32:17;;;;;;;8.53;4.70;;;13.50;99.90;;;;;;4979381;28;20202;-91
2022/07/16 04:34:43;;;;;;;8.37;5.20;;;13.50;99.90;;;;;;4963270;28;20210;-92
2022/07/16 04:37:08;;;;;;;5.57;5.03;;;13.50;99.90;;;;;;4979485;28;20179;-92
2022/07/16 04:39:36;;;;;;;6.47;5.27;;;13.50;99.90;;;;;;4978320;28;20211;-92
2022/07/16 04:42:02;;;;;;;5.00;4.50;;;13.60;99.90;;;;;;4980658;28;20233;-92
2022/07/16 04:44:31;;;;;;;6.20;5.07;;;13.60;99.90;;;;;;4987787;28;20190;-93
2022/07/16 04:46:57;;;;;;;5.97;4.90;;;13.60;99.90;;;;;;4980153;28;20250;-91
2022/07/16 04:49:23;;;;;;;7.23;4.90;;;13.60;99.90;;;;;;4981371;28;20224;-91
2022/07/16 04:51:50;;;;;;;6.27;5.07;;;13.60;99.90;;;;;;4997062;28;20206;-91
2022/07/16 04:54:25;;;;;;;5.77;5.10;;;13.50;99.90;;;;;;4979224;28;20659;-92
2022/07/16 04:57:10;;;;;;;6.47;4.77;;;13.60;99.90;;;;;;4988217;28;20179;-92
2022/07/16 04:59:36;;;;;;;6.93;5.20;;;13.60;99.90;;;;;;4963632;28;20180;-92
2022/07/16 05:04:48;;;;;;;5.80;5.00;;;13.70;99.90;;;;;;4996106;28;20185;-92
2022/07/16 05:07:14;;;;;;;7.93;4.83;;;13.80;99.90;;;;;;4978728;28;20199;-92
2022/07/16 05:09:40;;;;;;;5.87;4.63;;;13.90;99.90;;;;;;4995568;28;20187;-92
2022/07/16 05:12:07;;;;;;;6.30;5.13;;;13.90;99.90;;;;;;4963278;28;20214;-88
2022/07/16 05:14:37;;;;;;;7.13;5.63;;;13.90;99.90;;;;;;4974593;28;20217;-89
2022/07/16 05:17:03;;;;;;;6.33;5.20;;;14.00;99.90;;;;;;4999046;28;20179;-88
2022/07/16 05:19:32;;;;;;;7.23;5.30;;;14.10;99.90;;;;;;4998516;28;20269;-89
2022/07/16 05:22:11;;;;;;;6.23;5.30;;;14.00;99.90;;;;;;4981452;28;20223;-89
2022/07/16 05:24:54;;;;;;;6.10;5.40;;;14.10;99.90;;;;;;4997921;28;20182;-89
2022/07/16 05:27:21;;;;;;;5.70;5.20;;;14.20;99.90;;;;;;4997048;28;20185;-89
2022/07/16 05:29:52;;;;;;;6.00;5.13;;;14.30;99.90;;;;;;4981696;28;20255;-89
2022/07/16 05:32:18;;;;;;;6.73;5.30;;;14.40;99.90;;;;;;4981751;28;20207;-89
2022/07/16 05:34:44;;;;;;;6.97;4.50;;;14.40;99.90;;;;;;4981328;28;20237;-89
2022/07/16 05:37:10;;;;;;;5.50;5.00;;;14.60;99.90;;;;;;4997515;28;20237;-89
2022/07/16 05:39:36;;;;;;;6.13;5.30;;;14.70;99.90;;;;;;4997475;28;20220;-89
2022/07/16 05:42:04;;;;;;;6.13;5.17;;;14.70;99.90;;;;;;4981726;28;20202;-89
2022/07/16 05:44:30;;;;;;;5.37;4.87;;;14.80;99.90;;;;;;4997758;28;20213;-92
2022/07/16 05:46:56;;;;;;;6.33;4.70;;;14.90;99.90;;;;;;4997067;28;20206;-92
2022/07/16 05:49:22;;;;;;;5.67;4.80;;;15.00;99.90;;;;;;4996801;28;20179;-92
2022/07/16 05:51:48;;;;;;;8.17;5.77;;;15.20;99.90;;;;;;4996844;28;20261;-92
2022/07/16 05:54:15;;;;;;;5.77;5.27;;;15.30;99.90;;;;;;4996694;28;20211;-92
2022/07/16 05:56:41;;;;;;;7.63;5.17;;;15.40;99.90;;;;;;4996515;28;20172;-92
2022/07/16 05:59:06;;;;;;;5.77;5.17;;;15.60;99.90;;;;;;4980729;28;20176;-92
2022/07/16 06:44:32;;;;;;;4.40;4.00;;;18.20;99.90;;;;;;4995336;28;20221;-94
2022/07/16 06:46:58;;;;;;;7.10;4.23;;;18.30;99.90;;;;;;4998157;28;20190;-93
2022/07/16 06:49:24;;;;;;;5.35;4.25;;;18.50;99.90;;;;;;4981675;28;20246;-93
2022/07/16 06:51:50;;;;;;;5.65;4.50;;;18.60;99.90;;;;;;4980089;28;20278;-93
2022/07/16 06:54:15;;;;;;;6.05;4.10;;;18.80;99.90;;;;;;4979997;28;20217;-93
2022/07/16 06:56:42;;;;;;;4.93;3.90;;;18.90;99.90;;;;;;4979977;28;20179;-93
2022/07/16 06:59:09;;;;;;;6.00;4.07;;;19.10;99.90;;;;;;4996720;28;20176;-93
2022/07/16 07:01:35;;;;;;;6.97;4.15;;;19.10;99.90;;;;;;5012902;28;20293;-93
2022/07/16 07:04:03;;;;;;;4.82;3.60;;;19.10;99.90;;;;;;5000038;28;20176;-93
2022/07/16 07:06:29;;;;;;;5.18;4.22;;;19.20;99.90;;;;;;4997855;28;20279;-93
2022/07/16 07:08:59;;;;;;;5.47;4.32;;;19.50;99.90;;;;;;5011795;28;20266;-90
2022/07/16 07:11:25;;;;;;;6.22;4.28;;;19.70;99.90;;;;;;5011982;28;20290;-90
2022/07/16 07:13:51;;;;;;;4.78;3.90;;;19.90;99.90;;;;;;5034319;28;20175;-91
2022/07/16 07:16:17;;;;;;;4.85;3.80;;;20.10;99.90;;;;;;5015904;28;20290;-90
2022/07/16 07:18:44;;;;;;;4.03;3.65;;;20.30;99.90;;;;;;4988153;28;20191;-90
2022/07/16 07:21:11;;;;;;;4.38;3.83;;;20.50;99.90;;;;;;5004384;28;20254;-90
2022/07/16 07:23:51;;;;;;;4.78;3.75;;;20.60;99.90;;;;;;5003674;28;20186;-90
2022/07/16 07:26:17;;;;;;;3.40;3.10;;;20.80;99.90;;;;;;4995201;28;20155;-91
2022/07/16 07:28:43;;;;;;;4.10;3.70;;;20.90;99.90;;;;;;5019822;28;20213;-90
2022/07/16 07:31:09;;;;;;;4.03;3.63;;;20.90;99.90;;;;;;5000135;28;20242;-89
2022/07/16 07:33:39;;;;;;;4.50;3.83;;;21.00;99.90;;;;;;4999046;28;20175;-92
2022/07/16 07:39:38;;;;;;;4.00;3.60;;;21.10;99.90;;;;;;5017012;28;20190;-92
2022/07/16 07:42:05;;;;;;;3.83;3.28;;;21.10;99.90;;;;;;4985365;28;20206;-92
2022/07/16 07:44:32;;;;;;;5.90;3.58;;;21.10;99.70;;;;;;4999439;28;20175;-92
2022/07/16 07:47:37;;;;;;;3.53;3.22;;;21.20;99.50;;;;;;5010762;28;20188;-92
2022/07/16 07:50:04;;;;;;;6.55;3.35;;;21.40;99.20;;;;;;4924755;29;20189;-93
2022/07/16 07:52:33;;;;;;;5.18;3.55;;;21.60;99.10;;;;;;4972881;28;20222;-92
2022/07/16 07:55:05;;;;;;;4.25;2.80;;;21.60;98.20;;;;;;4999607;28;20215;-93
2022/07/16 07:57:33;;;;;;;4.13;3.20;;;21.70;98.30;;;;;;4983730;28;20190;-92
2022/07/16 07:59:59;;;;;;;4.07;2.75;;;21.90;98.20;;;;;;4982792;28;20270;-93
2022/07/16 08:02:25;;;;;;;3.33;2.65;;;22.10;97.40;;;;;;4982540;28;20326;-93
2022/07/16 08:04:52;;;;;;;3.35;2.60;;;22.30;97.50;;;;;;4998987;28;20187;-92
2022/07/16 08:07:39;;;;;;;5.07;2.95;;;22.40;97.10;;;;;;4999083;28;20179;-92
2022/07/16 08:10:06;;;;;;;2.47;2.28;;;22.70;95.90;;;;;;4982278;28;20179;-92
2022/07/16 08:12:40;;;;;;;6.40;2.85;;;22.80;95.70;;;;;;4995347;28;20208;-92
2022/07/16 08:15:08;;;;;;;6.72;3.17;;;23.00;96.00;;;;;;4979477;28;20277;-92
2022/07/16 08:17:35;;;;;;;3.63;2.70;;;23.20;95.30;;;;;;4996926;28;20175;-91
2022/07/16 08:20:28;;;;;;;4.43;2.65;;;23.30;95.20;;;;;;4963908;28;20246;-91
2022/07/16 08:26:42;;;;;;;2.20;2.00;;;23.60;93.80;;;;;;5016493;28;20163;-92
2022/07/16 08:29:08;;;;;;;3.83;2.30;;;23.80;92.30;;;;;;4981342;28;20172;-89
2022/07/16 08:31:34;;;;;;;4.10;2.47;;;24.00;92.20;;;;;;4977966;28;20196;-83
2022/07/16 08:34:00;;;;;;;3.30;2.30;;;24.20;91.90;;;;;;4994075;28;20203;-88
2022/07/16 08:36:27;;;;;;;4.70;2.65;;;24.30;91.90;;;;;;4962355;28;20172;-87
2022/07/16 08:38:54;;;;;;;3.35;2.50;;;24.30;92.00;;;;;;4962457;28;20188;-87
2022/07/16 08:41:20;;;;;;;4.25;2.55;;;24.20;92.90;;;;;;4962065;28;20200;-88
2022/07/16 08:43:46;;;;;;;3.03;2.33;;;24.30;92.10;;;;;;4981357;28;20258;-79
2022/07/16 08:46:14;;;;;;;5.70;2.40;;;24.30;91.20;;;;;;4994538;28;20191;-91
2022/07/16 08:48:41;;;;;;;4.75;2.50;;;24.50;91.50;;;;;;4978486;28;20196;-91
2022/07/16 08:51:11;;;;;;;3.45;2.40;;;24.70;93.30;;;;;;4978848;28;20200;-91
2022/07/16 08:54:11;;;;;;;2.97;2.60;;;25.00;92.80;;;;;;4963158;28;20176;-93
2022/07/16 08:56:37;;;;;;;5.35;2.80;;;25.10;92.50;;;;;;4963414;28;20180;-93
2022/07/16 08:59:05;;;;;;;2.65;2.40;;;25.00;91.40;;;;;;4962744;28;20372;-93
2022/07/16 09:01:32;;;;;;;5.03;2.13;;;24.90;90.80;;;;;;4964567;28;20290;-85
2022/07/16 09:03:59;;;;;;;5.10;2.53;;;25.00;91.10;;;;;;4963110;28;20187;-93
2022/07/16 09:06:26;;;;;;;3.47;2.85;;;25.20;91.70;;;;;;4962640;28;20184;-93
2022/07/16 09:08:53;;;;;;;6.07;2.63;;;25.20;90.90;;;;;;4962704;28;20188;-93
2022/07/16 09:11:26;;;;;;;3.20;2.53;;;25.30;92.20;;;;;;4962546;28;20199;-93
2022/07/16 09:14:09;;;;;;;3.40;2.65;;;25.50;91.20;;;;;;4978213;28;20183;-93
2022/07/16 09:16:52;;;;;;;4.97;2.60;;;25.50;90.20;;;;;;4978224;28;20188;-93
2022/07/16 09:19:27;;;;;;;3.63;2.78;;;25.60;90.90;;;;;;4978267;28;20180;-94
2022/07/16 09:22:07;;;;;;;3.05;2.70;;;25.90;90.50;;;;;;4978674;28;20206;-93
2022/07/16 09:24:44;;;;;;;3.08;2.50;;;26.00;90.70;;;;;;4978352;28;20241;-93
2022/07/16 09:27:11;;;;;;;3.67;2.60;;;26.20;90.10;;;;;;4978357;28;20179;-93
2022/07/16 09:29:52;;;;;;;3.17;2.22;;;26.40;88.50;;;;;;4978494;28;20184;-93
2022/07/16 09:32:51;;;;;;;3.55;2.50;;;26.60;89.30;;;;;;4977802;28;20672;-94
2022/07/16 09:35:18;;;;;;;2.80;2.40;;;26.50;86.90;;;;;;4946288;28;20232;-93
2022/07/16 09:37:54;;;;;;;2.80;2.20;;;26.70;86.40;;;;;;4978184;28;20242;-93
2022/07/16 09:40:36;;;;;;;2.85;2.25;;;26.60;87.70;;;;;;4994286;28;20186;-93
2022/07/16 09:43:12;;;;;;;4.38;2.67;;;26.70;87.30;;;;;;4978211;28;20180;-93
2022/07/16 09:45:43;;;;;;;3.72;2.72;;;27.00;87.50;;;;;;4994424;28;20184;-93
2022/07/16 09:48:31;;;;;;;4.80;2.30;;;27.00;84.30;;;;;;4978114;28;20195;-94
2022/07/16 09:51:22;;;;;;;3.90;2.38;;;27.00;85.20;;;;;;4977983;28;20200;-93
2022/07/16 09:54:05;;;;;;;4.28;2.30;;;27.00;84.10;;;;;;4978078;28;20176;-93
2022/07/16 09:56:31;;;;;;;3.08;2.53;;;27.10;85.60;;;;;;4993922;28;20327;-94
2022/07/16 09:58:58;;;;;;;3.13;2.40;;;27.20;86.00;;;;;;4994116;28;20270;-93
2022/07/16 10:01:24;;;;;;;3.92;2.40;;;27.30;85.10;;;;;;4977968;28;20287;-94
2022/07/16 10:03:51;;;;;;;4.53;2.17;;;27.50;81.50;;;;;;4994615;28;20346;-94
2022/07/16 10:06:18;;;;;;;2.13;1.80;;;27.50;81.40;;;;;;4978097;28;20176;-94
2022/07/16 10:08:45;;;;;;;3.95;2.38;;;27.60;79.90;;;;;;4977926;28;20191;-94
2022/07/16 10:11:12;;;;;;;3.05;2.05;;;27.60;83.10;;;;;;4978175;28;20203;-93
2022/07/16 10:13:42;;;;;;;3.03;2.00;;;27.80;81.30;;;;;;4978744;28;20637;-94
2022/07/16 10:16:08;;;;;;;3.03;2.20;;;28.00;81.30;;;;;;4978465;28;20207;-94
2022/07/16 10:18:38;;;;;;;4.50;2.40;;;28.20;79.40;;;;;;4978270;28;20264;-94
2022/07/16 10:21:11;;;;;;;3.60;2.00;;;28.20;77.90;;;;;;4978083;28;20199;-94
2022/07/16 10:23:38;;;;;;;2.35;2.15;;;28.00;78.10;;;;;;4978244;28;20234;-93
2022/07/16 10:26:08;;;;;;;2.53;2.30;;;27.70;79.20;;;;;;4978575;28;20184;-93
2022/07/16 10:28:43;;;;;;;3.85;1.90;;;27.50;78.40;;;;;;4977891;28;20198;-94
2022/07/16 10:31:31;;;;;;;3.58;1.98;;;27.40;79.10;;;;;;4977857;28;20249;-94
2022/07/16 10:34:15;;;;;;;3.72;2.15;;;27.50;79.30;;;;;;4978119;28;20184;-94
2022/07/16 10:36:47;;;;;;;2.53;2.22;;;27.70;78.30;;;;;;4995386;28;20218;-94
2022/07/16 10:39:15;;;;;;;3.05;2.30;;;28.00;78.60;;;;;;4996006;28;20208;-95
2022/07/16 10:41:59;;;;;;;3.00;2.15;;;28.20;79.60;;;;;;4990717;28;20195;-94
2022/07/16 10:44:46;;;;;;;3.10;2.30;;;28.40;76.30;;;;;;5000847;28;20180;-94
2022/07/16 10:47:14;;;;;;;2.88;2.17;;;28.60;77.20;;;;;;5001315;28;20248;-94
2022/07/16 10:49:41;;;;;;;3.28;2.00;;;28.70;80.00;;;;;;4977788;28;20184;-94
2022/07/16 10:52:14;;;;;;;3.70;2.20;;;29.00;79.30;;;;;;4976843;28;20207;-93
2022/07/16 10:54:49;;;;;;;3.17;2.10;;;29.00;76.90;;;;;;4978079;28;20209;-93
2022/07/16 10:57:43;;;;;;;3.67;2.22;;;29.00;77.30;;;;;;4994335;28;20262;-94
2022/07/16 11:00:17;;;;;;;3.63;2.08;;;29.00;76.10;;;;;;4978393;28;20211;-94
2022/07/16 11:02:43;;;;;;;3.20;2.30;;;29.20;77.60;;;;;;4994186;28;20227;-94
2022/07/16 11:05:09;;;;;;;4.13;2.20;;;29.30;76.50;;;;;;4994023;28;20188;-94
2022/07/16 11:07:36;;;;;;;3.38;1.90;;;29.30;77.10;;;;;;4987370;28;20184;-94
2022/07/16 11:10:03;;;;;;;3.97;2.30;;;29.60;77.10;;;;;;4986726;28;20188;-94
2022/07/16 11:12:33;;;;;;;3.15;2.17;;;29.50;78.00;;;;;;4978358;28;20210;-94
2022/07/16 11:15:01;;;;;;;2.28;2.00;;;29.50;76.30;;;;;;4977680;28;20243;-94
2022/07/16 11:17:29;;;;;;;3.42;2.13;;;29.30;76.30;;;;;;4977694;28;20187;-94
2022/07/16 11:19:58;;;;;;;1.90;1.70;;;29.20;76.90;;;;;;4978039;28;20180;-94
2022/07/16 11:22:26;;;;;;;3.47;2.40;;;29.10;76.20;;;;;;4962419;28;20291;-94
2022/07/16 11:24:54;;;;;;;3.10;2.28;;;29.20;77.60;;;;;;4962438;28;20771;-94
2022/07/16 11:27:38;;;;;;;3.15;1.95;;;29.30;76.00;;;;;;4994223;28;20180;-94
2022/07/16 11:30:06;;;;;;;3.30;2.40;;;29.50;77.00;;;;;;4978007;28;20188;-94
2022/07/16 11:32:33;;;;;;;4.22;2.38;;;29.40;78.00;;;;;;4977426;28;20223;-94
2022/07/16 11:35:05;;;;;;;3.13;2.35;;;29.20;75.40;;;;;;4994060;28;20212;-94
2022/07/16 11:38:07;;;;;;;3.60;1.90;;;29.00;75.80;;;;;;4977706;28;20176;-94
2022/07/16 11:40:38;;;;;;;3.63;1.83;;;29.00;75.50;;;;;;4922793;29;20243;-94
2022/07/16 11:43:05;;;;;;;2.42;1.88;;;28.80;76.30;;;;;;4968578;28;20215;-94
2022/07/16 11:45:41;;;;;;;4.00;2.00;;;28.90;76.00;;;;;;4978684;28;20184;-94
2022/07/16 11:48:12;;;;;;;3.55;2.22;;;29.10;75.80;;;;;;4978671;28;20262;-94
2022/07/16 11:50:39;;;;;;;2.63;1.70;;;29.10;73.80;;;;;;4978861;28;20180;-94
2022/07/16 11:53:05;;;;;;;2.53;2.10;;;29.30;75.00;;;;;;4994717;28;20184;-94
2022/07/16 11:55:31;;;;;;;4.07;1.92;;;29.70;73.40;;;;;;4995549;28;20219;-94
2022/07/16 11:57:58;;;;;;;2.95;2.00;;;29.80;72.90;;;;;;4979652;28;20191;-94
2022/07/16 12:00:24;;;;;;;2.25;2.10;;;29.70;74.10;;;;;;4978806;28;20264;-94
2022/07/16 12:02:58;;;;;;;2.38;1.60;;;29.90;73.40;;;;;;4980214;28;20199;-94
2022/07/16 12:05:28;;;;;;;2.63;1.73;;;30.10;73.70;;;;;;4982536;28;20227;-94
2022/07/16 12:07:55;;;;;;;3.28;1.88;;;29.90;73.30;;;;;;4982211;28;20210;-94
2022/07/16 12:10:25;;;;;;;2.40;1.70;;;29.70;72.90;;;;;;4982013;28;20212;-94
2022/07/16 12:13:03;;;;;;;2.97;1.55;;;29.80;72.30;;;;;;4981748;28;20191;-94
2022/07/16 12:15:30;;;;;;;3.00;1.50;;;30.10;71.50;;;;;;4982434;28;20207;-95
2022/07/16 12:18:11;;;;;;;2.63;1.70;;;29.90;70.10;;;;;;4982683;28;20184;-94
2022/07/16 12:20:37;;;;;;;2.65;1.70;;;29.90;71.20;;;;;;4981674;28;20176;-94
2022/07/16 12:23:14;;;;;;;1.73;1.60;;;29.80;72.50;;;;;;4998348;28;20176;-94
2022/07/16 12:25:41;;;;;;;2.25;1.60;;;30.20;71.60;;;;;;4982852;28;20204;-94
2022/07/16 12:28:10;;;;;;;2.28;1.77;;;30.30;72.40;;;;;;4982074;28;20183;-94
2022/07/16 12:30:45;;;;;;;3.00;1.75;;;30.60;71.40;;;;;;4982727;28;20207;-95
2022/07/16 12:33:22;;;;;;;2.35;1.60;;;30.60;71.60;;;;;;4983096;28;20175;-94
2022/07/16 12:35:49;;;;;;;2.03;1.75;;;30.80;70.80;;;;;;4998815;28;20211;-94
2022/07/16 12:38:38;;;;;;;3.72;1.70;;;31.00;70.00;;;;;;4998518;28;20176;-94
2022/07/16 12:41:11;;;;;;;2.03;1.75;;;31.00;70.30;;;;;;4982558;28;20231;-95
2022/07/16 12:43:39;;;;;;;1.65;1.50;;;30.60;68.40;;;;;;4982041;28;20204;-94
2022/07/16 12:46:07;;;;;;;1.50;1.30;;;30.80;70.60;;;;;;4981856;28;20176;-94
2022/07/16 12:48:44;;;;;;;2.70;1.42;;;30.80;68.70;;;;;;4966204;28;20192;-94
2022/07/16 12:51:12;;;;;;;2.60;1.67;;;30.90;70.00;;;;;;4965845;28;20261;-94
2022/07/16 12:53:39;;;;;;;2.08;1.58;;;31.00;68.90;;;;;;4966209;28;20270;-94
2022/07/16 12:58:50;;;;;;;3.08;1.67;;;31.30;68.60;;;;;;4982170;28;20247;-95
2022/07/16 13:01:18;;;;;;;2.58;1.77;;;31.60;68.40;;;;;;4966150;28;20204;-94
2022/07/16 13:03:45;;;;;;;3.10;1.40;;;31.80;67.90;;;;;;4966166;28;20206;-94
2022/07/16 13:06:11;;;;;;;1.75;1.60;;;31.40;68.10;;;;;;4982096;28;20270;-95
2022/07/16 13:08:38;;;;;;;3.53;1.80;;;31.10;68.90;;;;;;4998318;28;20187;-94
2022/07/16 13:11:06;;;;;;;2.47;1.60;;;31.20;68.60;;;;;;4982183;28;20200;-94
2022/07/16 13:13:36;;;;;;;1.67;1.55;;;31.40;67.90;;;;;;4981571;28;20192;-94
2022/07/16 13:16:03;;;;;;;1.67;1.58;;;31.60;67.70;;;;;;4982257;28;20200;-95
2022/07/16 13:18:30;;;;;;;2.15;1.48;;;31.60;66.40;;;;;;4982210;28;20176;-95
2022/07/16 13:20:57;;;;;;;4.40;1.40;;;31.30;67.50;;;;;;4981984;28;20219;-94
2022/07/16 13:23:24;;;;;;;2.63;1.55;;;31.30;69.40;;;;;;4982668;28;20180;-94
2022/07/16 13:25:51;;;;;;;2.90;1.65;;;31.50;68.20;;;;;;4982071;28;20215;-94
2022/07/16 13:28:18;;;;;;;2.72;1.85;;;30.70;68.60;;;;;;4980823;28;20260;-94
2022/07/16 13:30:45;;;;;;;4.25;1.65;;;30.70;69.20;;;;;;4980639;28;20184;-94
2022/07/16 13:33:11;;;;;;;2.67;1.80;;;30.70;68.30;;;;;;4965734;28;20251;-94
2022/07/16 13:35:38;;;;;;;2.70;1.58;;;30.70;67.70;;;;;;4981372;28;20204;-94
2022/07/16 13:38:04;;;;;;;2.05;1.80;;;30.80;68.80;;;;;;4982429;28;20187;-95
2022/07/16 13:40:30;;;;;;;3.05;1.63;;;30.70;69.10;;;;;;4982959;28;20239;-94
2022/07/16 13:42:56;;;;;;;2.53;1.50;;;30.80;71.70;;;;;;4983250;28;20183;-94
2022/07/16 13:45:22;;;;;;;1.75;1.30;;;30.90;68.90;;;;;;4983269;28;20211;-95
2022/07/16 13:47:48;;;;;;;1.58;1.30;;;31.20;69.90;;;;;;4965998;28;20199;-94
2022/07/16 13:50:15;;;;;;;2.35;1.55;;;31.30;67.60;;;;;;4982656;28;20192;-94
2022/07/16 13:52:42;;;;;;;1.83;1.52;;;31.50;66.60;;;;;;4983409;28;20214;-95
2022/07/16 13:55:09;;;;;;;1.52;1.42;;;31.50;68.10;;;;;;4966532;28;20213;-95
2022/07/16 14:00:23;;;;;;;1.77;1.30;;;31.20;67.10;;;;;;4981039;28;20274;-94
2022/07/16 14:02:49;;;;;;;3.53;1.55;;;31.10;67.60;;;;;;4965510;28;20208;-94
2022/07/16 14:05:15;;;;;;;2.15;1.48;;;31.10;67.30;;;;;;4981602;28;20190;-94
2022/07/16 14:07:41;;;;;;;2.08;1.33;;;31.10;66.60;;;;;;4998165;28;20192;-94